Time;durP1;ratioP1;P1;durP2;ratioP2;P2;SDS_P1;SDS_P2;PMS_P1;PMS_P2;Temp;Humidity;BMP_temperature;BMP_pressure;BME280_temperature;BME280_humidity;BME280_pressure;Samples;Min_cycle;Max_cycle;Signal;HPM_P1;HPM_P2
2022/09/01 00:01:52;;;;;;;5.00;4.50;;;17.30;1.00;;;;;;5086502;28;20794;-55
2022/09/01 00:04:20;;;;;;;4.57;4.17;;;17.20;1.00;;;;;;5087065;28;20465;-57
2022/09/01 00:06:47;;;;;;;5.90;4.20;;;17.10;1.00;;;;;;5087311;28;20451;-57
2022/09/01 00:09:16;;;;;;;4.67;3.67;;;17.00;1.00;;;;;;5084669;28;20423;-55
2022/09/01 00:11:46;;;;;;;4.60;4.17;;;16.80;1.00;;;;;;5082613;28;20455;-56
2022/09/01 00:14:12;;;;;;;6.93;4.50;;;16.70;1.00;;;;;;5089854;28;20454;-56
2022/09/01 00:16:38;;;;;;;6.80;4.63;;;16.60;1.00;;;;;;5082004;28;20988;-56
2022/09/01 00:19:06;;;;;;;4.87;4.30;;;16.60;1.00;;;;;;5086500;28;20518;-57
2022/09/01 00:21:41;;;;;;;4.40;4.10;;;16.60;1.00;;;;;;5087561;28;20291;-55
2022/09/01 00:24:07;;;;;;;5.47;4.27;;;16.60;1.00;;;;;;5085829;28;20452;-57
2022/09/01 00:26:34;;;;;;;8.00;4.30;;;16.60;1.00;;;;;;5088145;28;20419;-57
2022/09/01 00:28:59;;;;;;;4.60;4.17;;;16.70;1.00;;;;;;5087192;28;20428;-56
2022/09/01 00:31:28;;;;;;;5.37;4.07;;;16.60;1.00;;;;;;5087282;28;20458;-55
2022/09/01 00:33:54;;;;;;;8.23;5.07;;;16.60;1.00;;;;;;5082688;28;20218;-55
2022/09/01 00:36:20;;;;;;;5.37;4.87;;;16.70;1.00;;;;;;5081000;28;20457;-56
2022/09/01 00:38:47;;;;;;;4.80;4.30;;;16.80;1.00;;;;;;5069113;28;20205;-57
2022/09/01 00:41:14;;;;;;;5.03;4.53;;;16.70;1.00;;;;;;5086659;28;20460;-54
2022/09/01 00:43:44;;;;;;;10.83;5.40;;;16.70;1.00;;;;;;5083973;28;20973;-56
2022/09/01 00:46:14;;;;;;;5.57;4.67;;;16.60;1.00;;;;;;5085403;28;20484;-55
2022/09/01 00:48:39;;;;;;;5.60;4.57;;;16.60;1.00;;;;;;5085094;28;20448;-56
2022/09/01 00:51:08;;;;;;;4.27;3.90;;;16.60;1.00;;;;;;5086880;28;20487;-56
2022/09/01 00:53:34;;;;;;;5.60;4.03;;;16.60;1.00;;;;;;5088446;28;20221;-56
2022/09/01 00:56:01;;;;;;;7.50;3.63;;;16.50;1.00;;;;;;5086484;28;20453;-55
2022/09/01 00:58:28;;;;;;;4.80;4.10;;;16.50;1.00;;;;;;5086731;28;20440;-55
2022/09/01 01:00:54;;;;;;;4.40;4.00;;;16.40;1.00;;;;;;5087968;28;20528;-55
2022/09/01 01:03:20;;;;;;;3.83;3.50;;;16.40;1.00;;;;;;5086567;28;20526;-57
2022/09/01 01:05:53;;;;;;;4.73;4.30;;;16.30;1.00;;;;;;5085631;28;20668;-56
2022/09/01 01:08:33;;;;;;;5.57;4.00;;;16.30;1.00;;;;;;5088317;28;20459;-56
2022/09/01 01:11:08;;;;;;;6.10;3.90;;;16.30;1.00;;;;;;5083772;28;20441;-56
2022/09/01 01:13:56;;;;;;;4.57;4.17;;;16.30;1.00;;;;;;5086767;28;20602;-56
2022/09/01 01:16:24;;;;;;;4.80;4.03;;;16.30;1.00;;;;;;5086914;28;20519;-54
2022/09/01 01:18:50;;;;;;;5.70;4.40;;;16.30;1.00;;;;;;5084603;28;20437;-57
2022/09/01 01:24:30;;;;;;;4.37;3.97;;;16.20;1.00;;;;;;5084295;28;20467;-57
2022/09/01 01:26:59;;;;;;;4.70;4.30;;;16.30;1.00;;;;;;5087624;28;20453;-55
2022/09/01 01:29:27;;;;;;;3.90;3.60;;;16.40;1.00;;;;;;5088424;28;20460;-56
2022/09/01 01:31:53;;;;;;;4.97;4.20;;;16.30;1.00;;;;;;5085389;28;20782;-56
2022/09/01 01:34:21;;;;;;;8.63;4.37;;;16.70;1.00;;;;;;5085279;28;20497;-56
2022/09/01 01:36:49;;;;;;;4.77;4.00;;;16.30;1.00;;;;;;5086319;28;20210;-56
2022/09/01 01:39:24;;;;;;;4.33;3.83;;;16.20;1.00;;;;;;5086909;28;20989;-55
2022/09/01 01:41:51;;;;;;;4.47;4.07;;;16.20;1.00;;;;;;5084525;28;20414;-57
2022/09/01 01:44:20;;;;;;;4.50;4.10;;;16.20;1.00;;;;;;5084101;28;20452;-57
2022/09/01 01:46:51;;;;;;;4.33;3.70;;;16.30;1.00;;;;;;5085343;28;20957;-55
2022/09/01 01:49:20;;;;;;;3.87;3.57;;;16.20;1.00;;;;;;5086905;28;20458;-55
2022/09/01 01:51:54;;;;;;;4.10;3.80;;;16.20;1.00;;;;;;5091668;28;20440;-57
2022/09/01 01:54:21;;;;;;;6.97;3.80;;;16.20;1.00;;;;;;5087253;28;20837;-55
2022/09/01 01:56:47;;;;;;;4.13;3.83;;;16.20;1.00;;;;;;5090005;28;20562;-56
2022/09/01 01:59:15;;;;;;;4.00;3.70;;;16.20;1.00;;;;;;5089773;28;20838;-56
2022/09/01 02:01:42;;;;;;;5.70;4.43;;;16.20;1.00;;;;;;5090188;28;20480;-56
2022/09/01 02:04:10;;;;;;;4.30;3.90;;;16.20;1.00;;;;;;5088289;28;20422;-55
2022/09/01 02:06:40;;;;;;;4.47;4.07;;;16.30;1.00;;;;;;5088859;28;20936;-56
2022/09/01 02:09:07;;;;;;;4.23;3.70;;;16.30;1.00;;;;;;5088052;28;20501;-55
2022/09/01 02:11:36;;;;;;;4.73;4.10;;;16.20;1.00;;;;;;5085543;28;20833;-55
2022/09/01 02:14:06;;;;;;;4.57;4.10;;;16.10;1.00;;;;;;5088392;28;20557;-56
2022/09/01 02:16:32;;;;;;;5.57;4.30;;;16.20;1.00;;;;;;5081702;28;20763;-56
2022/09/01 02:18:59;;;;;;;4.90;4.40;;;16.00;1.00;;;;;;5087720;28;20452;-55
2022/09/01 02:21:26;;;;;;;3.67;3.30;;;15.60;1.00;;;;;;5088605;28;20422;-56
2022/09/01 02:23:59;;;;;;;4.07;3.73;;;16.00;1.00;;;;;;5091206;28;20531;-55
2022/09/01 02:26:34;;;;;;;5.00;4.00;;;16.10;1.00;;;;;;5091397;28;20426;-56
2022/09/01 02:29:03;;;;;;;6.07;3.97;;;16.00;1.00;;;;;;5089254;28;20447;-55
2022/09/01 02:31:30;;;;;;;3.90;3.60;;;16.10;1.00;;;;;;5089834;28;20480;-56
2022/09/01 02:33:57;;;;;;;5.90;4.10;;;16.10;1.00;;;;;;5088114;28;20464;-56
2022/09/01 02:36:24;;;;;;;4.73;4.23;;;16.00;1.00;;;;;;5088470;28;20432;-57
2022/09/01 02:38:50;;;;;;;4.27;3.90;;;16.00;1.00;;;;;;5090945;28;20423;-57
2022/09/01 02:41:21;;;;;;;5.37;3.83;;;16.00;1.00;;;;;;5086505;28;21046;-56
2022/09/01 02:43:48;;;;;;;4.47;4.07;;;16.00;1.00;;;;;;5089486;28;20419;-56
2022/09/01 02:46:14;;;;;;;4.60;3.90;;;16.10;1.00;;;;;;5087168;28;20946;-57
2022/09/01 02:48:44;;;;;;;4.40;4.00;;;16.20;1.00;;;;;;5089644;28;20540;-56
2022/09/01 02:51:14;;;;;;;4.47;4.10;;;16.10;1.00;;;;;;5088042;28;20488;-54
2022/09/01 02:53:41;;;;;;;5.87;4.47;;;16.10;1.00;;;;;;5090489;28;20443;-55
2022/09/01 02:56:13;;;;;;;5.23;4.73;;;16.10;1.00;;;;;;5071502;28;20445;-55
2022/09/01 02:58:45;;;;;;;4.70;4.30;;;16.10;1.00;;;;;;5090242;28;20800;-57
2022/09/01 03:01:23;;;;;;;6.20;4.10;;;15.90;1.00;;;;;;5089750;28;20440;-55
2022/09/01 03:03:51;;;;;;;3.60;3.30;;;16.10;1.00;;;;;;5088311;28;20460;-55
2022/09/01 03:06:18;;;;;;;4.30;3.60;;;16.10;1.00;;;;;;5089250;28;20440;-55
2022/09/01 03:08:45;;;;;;;3.73;3.30;;;16.00;1.00;;;;;;5085782;28;20538;-56
2022/09/01 03:11:11;;;;;;;4.23;3.83;;;16.00;1.00;;;;;;5087334;28;20798;-56
2022/09/01 03:13:39;;;;;;;4.20;3.80;;;16.00;1.00;;;;;;5086345;28;20468;-56
2022/09/01 03:16:09;;;;;;;3.90;3.60;;;16.00;1.00;;;;;;5090037;28;20178;-55
2022/09/01 03:18:35;;;;;;;3.90;3.60;;;15.90;1.00;;;;;;5089810;28;20558;-55
2022/09/01 03:21:05;;;;;;;4.67;4.00;;;15.80;1.00;;;;;;5090020;28;20455;-54
2022/09/01 03:23:32;;;;;;;4.40;4.10;;;15.70;1.00;;;;;;5088938;28;20504;-56
2022/09/01 03:25:58;;;;;;;5.93;4.10;;;15.60;1.00;;;;;;5086802;28;20419;-55
2022/09/01 03:28:24;;;;;;;4.73;4.33;;;15.50;1.00;;;;;;5088358;28;20444;-55
2022/09/01 03:30:52;;;;;;;4.33;3.93;;;15.40;1.00;;;;;;5089036;28;20457;-56
2022/09/01 03:33:20;;;;;;;5.80;4.00;;;15.40;1.00;;;;;;5083664;28;20447;-55
2022/09/01 03:35:47;;;;;;;5.53;4.60;;;15.40;1.00;;;;;;5087002;28;20510;-55
2022/09/01 03:38:21;;;;;;;4.70;4.30;;;15.50;1.00;;;;;;5088990;28;20469;-55
2022/09/01 03:40:53;;;;;;;6.67;6.17;;;15.70;1.00;;;;;;5086888;28;22470;-56
2022/09/01 03:43:23;;;;;;;4.77;4.30;;;15.70;1.00;;;;;;5088440;28;20416;-56
2022/09/01 03:45:54;;;;;;;4.50;4.10;;;15.80;1.00;;;;;;5086392;28;21086;-56
2022/09/01 03:48:19;;;;;;;6.53;4.70;;;15.80;1.00;;;;;;5090386;28;20506;-55
2022/09/01 03:50:46;;;;;;;5.37;4.40;;;15.90;1.00;;;;;;5091343;28;20503;-57
2022/09/01 03:53:18;;;;;;;5.23;4.83;;;15.90;1.00;;;;;;5085447;28;20489;-55
2022/09/01 03:55:46;;;;;;;8.10;5.17;;;15.90;1.00;;;;;;5086654;28;20502;-55
2022/09/01 03:58:17;;;;;;;5.20;4.80;;;15.90;1.00;;;;;;5084102;28;20426;-54
2022/09/01 04:00:46;;;;;;;5.00;4.50;;;15.90;1.00;;;;;;5086925;28;20486;-57
2022/09/01 04:03:13;;;;;;;5.20;4.70;;;16.00;1.00;;;;;;5089469;28;20838;-56
2022/09/01 04:05:43;;;;;;;5.97;5.30;;;16.00;1.00;;;;;;5088772;28;20440;-56
2022/09/01 04:08:11;;;;;;;5.50;5.00;;;16.00;1.00;;;;;;5087813;28;20476;-58
2022/09/01 04:10:48;;;;;;;5.20;4.63;;;16.00;1.00;;;;;;5085793;28;20468;-58
2022/09/01 04:13:15;;;;;;;6.00;5.40;;;16.10;1.00;;;;;;5089085;28;20500;-57
2022/09/01 04:15:40;;;;;;;6.67;6.17;;;16.10;1.00;;;;;;5088067;28;20419;-58
2022/09/01 04:18:10;;;;;;;6.10;5.00;;;16.00;1.00;;;;;;5088366;28;20486;-56
2022/09/01 04:20:49;;;;;;;6.57;5.20;;;16.20;1.00;;;;;;5087928;28;20199;-56
2022/09/01 04:23:25;;;;;;;4.90;4.50;;;16.10;1.00;;;;;;5085878;28;20449;-57
2022/09/01 04:25:53;;;;;;;6.10;5.60;;;16.00;1.00;;;;;;5085909;28;20423;-58
2022/09/01 04:28:23;;;;;;;6.77;5.50;;;16.00;1.00;;;;;;5089287;28;21010;-58
2022/09/01 04:30:58;;;;;;;12.30;8.53;;;16.10;1.00;;;;;;5068347;28;20427;-59
2022/09/01 04:33:36;;;;;;;6.63;6.03;;;16.10;1.00;;;;;;5088764;28;20478;-56
2022/09/01 04:36:27;;;;;;;6.23;5.60;;;16.00;1.00;;;;;;5088824;28;20527;-57
2022/09/01 04:38:56;;;;;;;6.13;5.17;;;16.00;1.00;;;;;;5087945;28;20447;-57
2022/09/01 04:41:24;;;;;;;7.90;6.00;;;16.10;1.00;;;;;;5049209;28;20446;-56
2022/09/01 04:43:55;;;;;;;6.20;5.60;;;16.00;1.00;;;;;;5046760;28;20460;-58
2022/09/01 04:46:22;;;;;;;5.80;5.30;;;16.10;1.00;;;;;;5047987;28;20428;-56
2022/09/01 04:48:51;;;;;;;6.50;5.90;;;16.10;1.00;;;;;;5046260;28;20881;-59
2022/09/01 04:51:19;;;;;;;7.10;6.13;;;16.20;1.00;;;;;;5047305;28;20442;-59
2022/09/01 04:53:47;;;;;;;10.13;6.40;;;16.10;1.00;;;;;;5046637;28;21034;-58
2022/09/01 04:56:14;;;;;;;7.93;6.40;;;16.00;1.00;;;;;;5046709;28;20527;-57
2022/09/01 04:58:39;;;;;;;7.80;6.17;;;16.00;1.00;;;;;;5046783;28;20533;-58
2022/09/01 05:01:26;;;;;;;7.63;6.57;;;16.00;1.00;;;;;;5046307;28;20996;-58
2022/09/01 05:03:58;;;;;;;6.77;6.17;;;16.10;1.00;;;;;;5045244;28;20187;-56
2022/09/01 05:06:23;;;;;;;7.20;6.27;;;16.20;1.00;;;;;;5047693;28;20438;-55
2022/09/01 05:08:50;;;;;;;6.80;5.83;;;16.20;1.00;;;;;;5047454;28;20515;-55
2022/09/01 05:11:16;;;;;;;6.50;5.63;;;16.20;1.00;;;;;;5047831;28;20719;-55
2022/09/01 05:13:47;;;;;;;6.47;5.87;;;16.30;1.00;;;;;;5045705;28;20478;-55
2022/09/01 05:16:18;;;;;;;6.57;5.80;;;16.30;1.00;;;;;;5048786;28;20966;-56
2022/09/01 05:18:46;;;;;;;7.47;6.87;;;16.30;1.00;;;;;;5046402;28;20517;-56
2022/09/01 05:21:15;;;;;;;9.37;6.53;;;16.40;1.00;;;;;;5045357;28;20484;-55
2022/09/01 05:23:43;;;;;;;6.87;6.27;;;16.30;1.00;;;;;;5047475;28;20433;-54
2022/09/01 05:26:15;;;;;;;6.53;5.90;;;16.40;1.00;;;;;;5026487;28;20433;-54
2022/09/01 05:28:42;;;;;;;8.07;6.40;;;16.40;1.00;;;;;;5046164;28;20465;-56
2022/09/01 05:31:08;;;;;;;12.13;6.87;;;16.40;1.00;;;;;;5049106;28;20429;-55
2022/09/01 05:33:35;;;;;;;6.90;6.30;;;16.50;1.00;;;;;;5048382;28;20960;-55
2022/09/01 05:36:07;;;;;;;7.53;6.53;;;16.60;1.00;;;;;;5049778;28;20495;-55
2022/09/01 05:38:33;;;;;;;8.90;6.33;;;16.70;1.00;;;;;;5044678;28;20453;-56
2022/09/01 05:41:02;;;;;;;12.33;6.73;;;16.80;1.00;;;;;;5083093;28;20469;-55
2022/09/01 05:43:29;;;;;;;7.43;6.73;;;16.80;1.00;;;;;;5087035;28;20441;-54
2022/09/01 05:45:59;;;;;;;8.90;6.80;;;16.90;1.00;;;;;;5087222;28;20651;-55
2022/09/01 05:48:27;;;;;;;8.40;7.60;;;16.90;1.00;;;;;;5085700;28;20520;-61
2022/09/01 05:50:56;;;;;;;7.23;6.57;;;17.00;1.00;;;;;;5088054;28;20908;-56
2022/09/01 05:53:24;;;;;;;8.10;6.60;;;17.00;1.00;;;;;;5085705;28;20609;-54
2022/09/01 05:55:55;;;;;;;15.03;6.80;;;17.10;1.00;;;;;;5089229;28;20990;-57
2022/09/01 05:58:24;;;;;;;7.50;6.87;;;17.10;1.00;;;;;;5084752;28;20440;-55
2022/09/01 06:00:53;;;;;;;8.40;7.33;;;17.10;1.00;;;;;;5086653;28;20411;-54
2022/09/01 06:03:21;;;;;;;8.60;6.30;;;17.30;1.00;;;;;;5087301;28;20441;-55
2022/09/01 06:05:51;;;;;;;7.17;6.47;;;17.40;1.00;;;;;;5088097;28;20993;-55
2022/09/01 06:08:18;;;;;;;7.27;6.57;;;17.50;1.00;;;;;;5088808;28;20426;-54
2022/09/01 06:10:45;;;;;;;6.83;6.23;;;17.40;1.00;;;;;;5088057;28;20415;-54
2022/09/01 06:13:14;;;;;;;8.80;6.80;;;17.20;1.00;;;;;;5067460;28;20451;-55
2022/09/01 06:15:41;;;;;;;7.40;6.67;;;17.20;1.00;;;;;;5088985;28;20787;-55
2022/09/01 06:18:10;;;;;;;7.90;7.20;;;17.40;1.00;;;;;;5087343;28;20442;-55
2022/09/01 06:20:39;;;;;;;6.43;5.70;;;17.20;1.00;;;;;;5088044;28;20502;-55
2022/09/01 06:23:06;;;;;;;8.90;6.83;;;17.30;1.00;;;;;;5085738;28;20511;-57
2022/09/01 06:25:35;;;;;;;8.20;7.40;;;17.40;1.00;;;;;;5088630;28;20948;-56
2022/09/01 06:28:03;;;;;;;7.83;7.10;;;17.40;1.00;;;;;;5086899;28;20535;-56
2022/09/01 06:30:29;;;;;;;8.10;6.40;;;17.50;1.00;;;;;;5087550;28;20453;-55
2022/09/01 06:32:55;;;;;;;9.13;7.50;;;17.70;1.00;;;;;;5087304;28;20998;-56
2022/09/01 06:35:28;;;;;;;7.77;6.33;;;17.80;1.00;;;;;;5090027;28;20448;-54
2022/09/01 06:37:57;;;;;;;7.57;6.87;;;17.70;1.00;;;;;;5091803;28;20433;-54
2022/09/01 06:40:24;;;;;;;9.50;6.63;;;17.70;1.00;;;;;;5088706;28;20468;-56
2022/09/01 06:42:51;;;;;;;6.73;6.00;;;17.70;1.00;;;;;;5090669;28;20964;-55
2022/09/01 06:45:19;;;;;;;6.73;6.10;;;17.90;1.00;;;;;;5091307;28;20448;-55
2022/09/01 06:47:46;;;;;;;12.33;6.50;;;18.10;1.00;;;;;;5091975;28;20821;-56
2022/09/01 06:50:14;;;;;;;9.73;6.23;;;18.30;1.00;;;;;;5090535;28;21016;-54
2022/09/01 06:52:43;;;;;;;10.63;6.60;;;18.40;1.00;;;;;;5088835;28;20621;-56
2022/09/01 06:55:13;;;;;;;7.43;6.17;;;18.20;1.00;;;;;;5089342;28;20444;-56
2022/09/01 06:57:44;;;;;;;8.07;7.07;;;18.40;1.00;;;;;;5090720;28;20465;-55
2022/09/01 07:00:19;;;;;;;13.07;6.43;;;18.60;1.00;;;;;;5091138;28;20594;-55
2022/09/01 07:02:47;;;;;;;7.33;6.60;;;18.60;1.00;;;;;;5087713;28;20495;-56
2022/09/01 07:05:18;;;;;;;7.60;6.80;;;18.60;1.00;;;;;;5087442;28;20424;-56
2022/09/01 07:07:54;;;;;;;8.73;6.70;;;18.60;1.00;;;;;;5091057;28;20510;-54
2022/09/01 07:10:21;;;;;;;7.90;6.90;;;18.40;1.00;;;;;;5073141;28;20448;-55
2022/09/01 07:12:55;;;;;;;8.10;7.30;;;18.40;1.00;;;;;;5092020;28;20981;-55
2022/09/01 07:15:22;;;;;;;8.00;6.53;;;18.60;1.00;;;;;;5091859;28;20938;-56
2022/09/01 07:17:51;;;;;;;9.33;6.17;;;18.70;1.00;;;;;;5091587;28;20443;-54
2022/09/01 07:20:19;;;;;;;7.30;6.20;;;18.40;1.00;;;;;;5089720;28;20852;-56
2022/09/01 07:22:49;;;;;;;7.00;6.20;;;18.60;1.00;;;;;;5091286;28;20492;-54
2022/09/01 07:25:16;;;;;;;8.37;6.40;;;18.70;1.00;;;;;;5089157;28;20982;-55
2022/09/01 07:27:47;;;;;;;10.30;6.93;;;18.80;1.00;;;;;;5091793;28;20558;-55
2022/09/01 07:30:14;;;;;;;6.20;5.43;;;18.90;1.00;;;;;;5088853;28;21265;-55
2022/09/01 07:32:43;;;;;;;7.07;6.43;;;19.10;1.00;;;;;;5090082;28;20496;-55
2022/09/01 07:35:11;;;;;;;9.83;6.60;;;19.10;1.00;;;;;;5092067;28;20810;-55
2022/09/01 07:37:36;;;;;;;9.47;7.30;;;19.20;1.00;;;;;;5090542;28;20411;-56
2022/09/01 07:40:08;;;;;;;7.17;6.27;;;19.20;1.00;;;;;;5088118;28;20832;-55
2022/09/01 07:42:34;;;;;;;7.53;6.00;;;19.20;1.00;;;;;;5091296;28;20421;-56
2022/09/01 07:45:00;;;;;;;8.83;7.07;;;19.20;1.00;;;;;;5072918;28;20415;-57
2022/09/01 07:47:28;;;;;;;6.60;5.90;;;19.50;1.00;;;;;;5090038;28;20450;-55
2022/09/01 07:49:54;;;;;;;7.60;5.93;;;19.50;1.00;;;;;;5091315;28;20439;-57
2022/09/01 07:52:20;;;;;;;6.17;5.67;;;19.50;1.00;;;;;;5091007;28;20915;-55
2022/09/01 07:54:46;;;;;;;6.00;5.53;;;19.50;1.00;;;;;;5091402;28;20411;-56
2022/09/01 07:57:11;;;;;;;8.00;5.60;;;19.60;1.00;;;;;;5090547;28;20584;-57
2022/09/01 07:59:37;;;;;;;6.40;5.90;;;19.80;1.00;;;;;;5091247;28;20214;-55
2022/09/01 08:02:04;;;;;;;7.20;6.60;;;19.90;1.00;;;;;;5091002;28;20193;-56
2022/09/01 08:04:32;;;;;;;6.97;6.07;;;19.90;1.00;;;;;;5091436;28;20411;-57
2022/09/01 08:06:59;;;;;;;8.47;6.27;;;20.00;1.00;;;;;;5091208;28;20428;-55
2022/09/01 08:09:24;;;;;;;6.70;6.10;;;20.10;1.00;;;;;;5089246;28;20529;-56
2022/09/01 08:11:50;;;;;;;7.00;5.40;;;20.10;1.00;;;;;;5089808;28;20520;-56
2022/09/01 08:14:16;;;;;;;7.07;5.30;;;20.20;1.00;;;;;;5090607;28;20680;-56
2022/09/01 08:16:42;;;;;;;6.50;4.60;;;20.10;1.00;;;;;;5089528;28;20523;-56
2022/09/01 08:19:07;;;;;;;6.30;5.70;;;20.30;1.00;;;;;;5089518;28;20182;-56
2022/09/01 08:21:34;;;;;;;6.40;5.80;;;20.70;1.00;;;;;;5090190;28;20250;-56
2022/09/01 08:24:00;;;;;;;7.30;5.57;;;20.80;1.00;;;;;;5090662;28;20201;-56
2022/09/01 08:26:26;;;;;;;7.57;5.60;;;20.70;1.00;;;;;;5089973;28;20904;-56
2022/09/01 08:28:52;;;;;;;8.40;4.80;;;20.90;1.00;;;;;;5090731;28;20527;-56
2022/09/01 08:31:19;;;;;;;9.63;5.53;;;21.10;1.00;;;;;;5091227;28;20522;-57
2022/09/01 08:33:47;;;;;;;6.80;4.93;;;21.20;1.00;;;;;;5084209;28;20538;-55
2022/09/01 08:36:16;;;;;;;7.30;5.47;;;21.40;1.00;;;;;;5089060;28;20414;-55
2022/09/01 08:38:42;;;;;;;6.93;5.07;;;21.40;1.00;;;;;;5072558;28;20433;-56
2022/09/01 08:41:44;;;;;;;7.80;4.90;;;21.20;1.00;;;;;;5089749;28;20564;-55
2022/09/01 08:44:28;;;;;;;6.23;5.10;;;20.90;1.00;;;;;;5088118;28;20448;-56
2022/09/01 08:46:58;;;;;;;5.40;4.87;;;21.20;1.00;;;;;;5090238;28;20934;-57
2022/09/01 08:49:26;;;;;;;10.00;4.90;;;21.20;1.00;;;;;;5090169;28;20439;-55
2022/09/01 08:51:59;;;;;;;7.40;5.00;;;21.70;1.00;;;;;;5090498;28;20480;-57
2022/09/01 08:54:55;;;;;;;8.70;5.60;;;22.20;1.00;;;;;;5089357;28;20965;-56
2022/09/01 08:57:42;;;;;;;6.30;4.20;;;22.40;1.00;;;;;;5089487;28;20489;-55
2022/09/01 09:00:12;;;;;;;5.20;4.20;;;22.50;1.00;;;;;;5088585;28;20415;-54
2022/09/01 09:02:52;;;;;;;10.97;3.70;;;22.50;1.00;;;;;;5088093;28;20407;-56
2022/09/01 09:05:38;;;;;;;8.70;4.10;;;22.40;1.00;;;;;;5088561;28;20532;-56
2022/09/01 09:08:27;;;;;;;5.00;3.80;;;22.30;1.00;;;;;;5089483;28;20403;-56
2022/09/01 09:11:40;;;;;;;5.10;3.30;;;22.40;1.00;;;;;;5089036;28;20865;-56
2022/09/01 09:14:46;;;;;;;5.60;3.37;;;22.80;1.00;;;;;;5026446;28;20947;-55
2022/09/01 09:17:16;;;;;;;4.87;3.00;;;22.40;1.00;;;;;;5027174;28;20427;-56
2022/09/01 09:19:43;;;;;;;5.63;3.90;;;21.90;1.00;;;;;;5076512;28;20440;-55
2022/09/01 09:22:15;;;;;;;6.40;3.53;;;21.80;1.00;;;;;;5089686;28;20403;-54
2022/09/01 09:24:59;;;;;;;5.17;3.60;;;21.70;1.00;;;;;;5089220;28;21649;-55
2022/09/01 09:27:26;;;;;;;5.83;3.70;;;21.80;1.00;;;;;;5089358;28;20396;-56
2022/09/01 09:30:18;;;;;;;6.23;4.00;;;22.10;1.00;;;;;;5089031;28;20444;-55
2022/09/01 09:33:02;;;;;;;4.73;3.80;;;22.20;1.00;;;;;;5087994;28;20484;-56
2022/09/01 09:35:32;;;;;;;5.17;3.60;;;22.20;1.00;;;;;;5088406;28;20452;-57
2022/09/01 09:38:27;;;;;;;4.20;3.50;;;22.10;1.00;;;;;;5088009;28;20427;-56
2022/09/01 09:41:05;;;;;;;6.73;3.60;;;22.10;1.00;;;;;;5089405;28;20460;-56
2022/09/01 09:43:57;;;;;;;4.53;3.20;;;22.10;1.00;;;;;;5088787;28;20467;-54
2022/09/01 09:46:31;;;;;;;5.33;3.73;;;22.10;1.00;;;;;;5087902;28;20530;-55
2022/09/01 09:49:22;;;;;;;4.10;3.70;;;22.20;1.00;;;;;;5088015;28;20460;-55
2022/09/01 09:51:53;;;;;;;6.60;3.23;;;22.40;1.00;;;;;;5089283;28;20506;-55
2022/09/01 09:54:31;;;;;;;5.53;2.90;;;22.70;1.00;;;;;;5087681;28;22382;-55
2022/09/01 09:57:10;;;;;;;6.13;3.00;;;23.10;1.00;;;;;;5087873;28;20436;-57
2022/09/01 09:59:58;;;;;;;5.20;3.10;;;23.50;1.00;;;;;;5086939;28;20443;-57
2022/09/01 10:02:26;;;;;;;5.37;3.30;;;23.80;1.00;;;;;;5072641;28;20448;-56
2022/09/01 10:04:52;;;;;;;3.57;3.23;;;23.70;1.00;;;;;;5089290;28;20395;-56
2022/09/01 10:07:29;;;;;;;5.57;2.73;;;23.80;1.00;;;;;;5089494;28;20980;-56
2022/09/01 10:09:59;;;;;;;4.23;2.80;;;23.90;1.00;;;;;;5090592;28;20991;-57
2022/09/01 10:12:26;;;;;;;4.60;3.37;;;24.10;1.00;;;;;;5092205;28;20432;-55
2022/09/01 10:15:06;;;;;;;3.57;2.80;;;24.00;1.00;;;;;;5091066;28;21009;-56
2022/09/01 10:17:37;;;;;;;4.73;3.30;;;23.70;1.00;;;;;;5091473;28;20470;-57
2022/09/01 10:20:24;;;;;;;3.80;3.20;;;23.60;1.00;;;;;;5090079;28;20419;-56
2022/09/01 10:22:51;;;;;;;6.10;3.10;;;23.70;1.00;;;;;;5089078;28;20516;-57
2022/09/01 10:25:21;;;;;;;4.33;3.40;;;24.00;1.00;;;;;;5091242;28;20501;-57
2022/09/01 10:27:57;;;;;;;5.97;3.23;;;24.00;1.00;;;;;;5092256;28;20418;-56
2022/09/01 10:30:23;;;;;;;5.77;3.23;;;24.00;1.00;;;;;;5092602;28;20429;-56
2022/09/01 10:32:53;;;;;;;5.10;2.53;;;24.10;1.00;;;;;;5092466;28;20534;-56
2022/09/01 10:35:23;;;;;;;3.17;2.60;;;24.40;1.00;;;;;;5092310;28;20429;-58
2022/09/01 10:37:50;;;;;;;2.83;2.43;;;24.50;1.00;;;;;;5091078;28;20945;-57
2022/09/01 10:40:49;;;;;;;3.63;2.43;;;24.50;1.00;;;;;;5091351;28;20520;-55
2022/09/01 10:43:24;;;;;;;3.27;2.63;;;24.30;1.00;;;;;;5082422;28;20484;-58
2022/09/01 10:45:50;;;;;;;2.87;2.30;;;24.50;1.00;;;;;;5088889;28;20777;-55
2022/09/01 10:48:19;;;;;;;2.60;1.67;;;24.20;1.00;;;;;;5092392;28;20480;-55
2022/09/01 10:50:46;;;;;;;3.47;2.70;;;23.50;1.00;;;;;;5090963;28;20419;-57
2022/09/01 10:53:34;;;;;;;3.57;1.77;;;23.00;1.00;;;;;;5090794;28;20828;-57
2022/09/01 10:56:18;;;;;;;3.20;2.70;;;23.00;1.00;;;;;;5088844;28;20486;-55
2022/09/01 10:59:21;;;;;;;4.93;1.90;;;23.10;1.00;;;;;;5088732;28;20479;-57
2022/09/01 11:01:50;;;;;;;5.83;2.43;;;23.30;1.00;;;;;;5092192;28;21101;-57
2022/09/01 11:04:19;;;;;;;2.67;2.47;;;23.40;1.00;;;;;;5091460;28;20436;-57
2022/09/01 11:06:54;;;;;;;2.73;1.80;;;24.10;1.00;;;;;;5092236;28;21041;-57
2022/09/01 11:09:41;;;;;;;3.03;2.37;;;24.50;1.00;;;;;;5092199;28;20436;-55
2022/09/01 11:12:21;;;;;;;4.60;2.00;;;24.70;1.00;;;;;;5091368;28;20419;-56
2022/09/01 11:15:04;;;;;;;3.73;1.57;;;24.80;1.00;;;;;;5087360;28;20434;-56
2022/09/01 11:17:36;;;;;;;3.80;1.67;;;24.50;1.00;;;;;;5091656;28;20810;-57
2022/09/01 11:20:21;;;;;;;3.70;1.67;;;24.50;1.00;;;;;;5091716;28;20917;-56
2022/09/01 11:22:55;;;;;;;3.20;1.70;;;24.60;1.00;;;;;;5090349;28;20445;-57
2022/09/01 11:25:40;;;;;;;2.30;1.60;;;24.60;1.00;;;;;;5088783;28;20455;-57
2022/09/01 11:28:08;;;;;;;3.30;1.40;;;24.50;1.00;;;;;;5087402;28;20504;-56
2022/09/01 11:30:57;;;;;;;2.00;1.40;;;24.70;1.00;;;;;;5090650;28;20451;-56
2022/09/01 11:33:45;;;;;;;3.73;1.70;;;25.00;1.00;;;;;;5092384;28;20484;-55
2022/09/01 11:36:29;;;;;;;1.43;1.23;;;25.10;1.00;;;;;;5090845;28;20419;-56
2022/09/01 11:39:03;;;;;;;2.80;1.60;;;25.20;1.00;;;;;;5088149;28;20403;-56
2022/09/01 11:41:55;;;;;;;4.20;1.57;;;25.20;1.00;;;;;;5090815;28;20459;-58
2022/09/01 11:44:53;;;;;;;1.67;1.43;;;25.30;1.00;;;;;;5090639;28;20430;-57
2022/09/01 11:47:44;;;;;;;6.43;1.50;;;25.30;1.00;;;;;;5051975;28;20506;-56
2022/09/01 11:50:25;;;;;;;3.20;1.97;;;25.00;1.00;;;;;;5088376;28;20514;-56
2022/09/01 11:52:59;;;;;;;3.53;2.57;;;24.50;1.00;;;;;;5088164;28;20472;-56
2022/09/01 11:55:35;;;;;;;2.50;2.10;;;24.00;1.00;;;;;;5088140;28;20506;-56
2022/09/01 11:58:01;;;;;;;6.13;1.60;;;23.70;1.00;;;;;;5087461;28;20798;-56
2022/09/01 12:00:31;;;;;;;7.50;2.60;;;23.70;1.00;;;;;;5091133;28;20514;-56
2022/09/01 12:02:58;;;;;;;5.33;2.20;;;23.70;1.00;;;;;;5090077;28;20479;-56
2022/09/01 12:05:35;;;;;;;6.27;2.60;;;23.70;1.00;;;;;;5091149;28;20440;-57
2022/09/01 12:08:03;;;;;;;6.23;2.30;;;23.90;1.00;;;;;;5088234;28;20410;-55
2022/09/01 12:10:37;;;;;;;3.40;2.10;;;24.10;1.00;;;;;;5090394;28;20502;-56
2022/09/01 12:13:06;;;;;;;2.80;2.50;;;24.30;1.00;;;;;;5091723;28;20932;-54
2022/09/01 12:15:33;;;;;;;5.03;2.70;;;24.50;1.00;;;;;;5089939;28;20475;-55
2022/09/01 12:18:22;;;;;;;3.93;2.53;;;24.50;1.00;;;;;;5089182;28;20968;-56
2022/09/01 12:20:49;;;;;;;2.20;1.90;;;24.70;1.00;;;;;;5089167;28;20548;-57
2022/09/01 12:23:36;;;;;;;2.50;2.20;;;24.60;1.00;;;;;;5089513;28;20851;-57
2022/09/01 12:26:27;;;;;;;2.70;2.07;;;24.50;1.00;;;;;;5088917;28;20540;-55
2022/09/01 12:28:53;;;;;;;2.77;2.57;;;24.50;1.00;;;;;;5087692;28;20423;-56
2022/09/01 12:31:23;;;;;;;6.50;2.27;;;24.50;1.00;;;;;;5089227;28;20441;-61
2022/09/01 12:33:50;;;;;;;4.40;2.63;;;24.40;1.00;;;;;;5088138;28;20439;-61
2022/09/01 12:36:29;;;;;;;3.80;2.13;;;24.50;1.00;;;;;;5089293;28;20436;-61
2022/09/01 12:39:16;;;;;;;3.73;2.13;;;24.70;1.00;;;;;;5089612;28;20561;-61
2022/09/01 12:41:45;;;;;;;4.63;1.93;;;24.60;1.00;;;;;;5070877;28;20426;-61
2022/09/01 12:44:33;;;;;;;2.47;2.00;;;24.50;1.00;;;;;;5088095;28;20449;-62
2022/09/01 12:47:08;;;;;;;5.10;2.30;;;24.90;1.00;;;;;;5088008;28;20475;-60
2022/09/01 12:49:40;;;;;;;4.70;1.73;;;25.40;1.00;;;;;;5070819;28;20501;-61
2022/09/01 12:52:18;;;;;;;3.58;1.80;;;25.60;1.00;;;;;;5087556;28;20423;-59
2022/09/01 12:55:05;;;;;;;2.07;1.87;;;25.70;1.00;;;;;;5086223;28;20252;-59
2022/09/01 12:57:50;;;;;;;2.07;1.90;;;25.80;1.00;;;;;;5066913;28;20511;-60
2022/09/01 13:00:19;;;;;;;3.60;1.43;;;25.70;1.00;;;;;;5086016;28;20444;-59
2022/09/01 13:02:46;;;;;;;3.57;1.53;;;25.30;1.00;;;;;;5088912;28;20521;-60
2022/09/01 13:05:24;;;;;;;1.90;1.70;;;25.10;1.00;;;;;;5086375;28;20449;-58
2022/09/01 13:07:54;;;;;;;1.80;1.60;;;25.10;1.00;;;;;;5089699;28;20435;-60
2022/09/01 13:10:23;;;;;;;6.10;1.80;;;25.10;1.00;;;;;;5072042;28;20572;-60
2022/09/01 13:12:49;;;;;;;2.50;1.70;;;25.10;1.00;;;;;;5090053;28;20460;-60
2022/09/01 13:15:16;;;;;;;8.00;2.20;;;25.30;1.00;;;;;;5089815;28;20808;-60
2022/09/01 13:17:42;;;;;;;3.27;2.00;;;25.30;1.00;;;;;;5088903;28;20901;-61
2022/09/01 13:20:08;;;;;;;3.10;1.63;;;25.40;1.00;;;;;;5088605;28;20504;-61
2022/09/01 13:22:34;;;;;;;3.53;1.37;;;25.30;1.00;;;;;;5089127;28;20483;-60
2022/09/01 13:25:02;;;;;;;2.20;2.00;;;25.40;1.00;;;;;;5085406;28;21092;-60